sensor_id;sensor_type;location;lat;lon;timestamp;P1;durP1;ratioP1;P2;durP2;ratioP2
26113;SDS011;13966;48.828;9.064;2022-12-11T00:01:11;38.63;;;21.98;;
26113;SDS011;13966;48.828;9.064;2022-12-11T00:03:37;38.25;;;22.15;;
26113;SDS011;13966;48.828;9.064;2022-12-11T00:06:05;40.78;;;23.55;;
26113;SDS011;13966;48.828;9.064;2022-12-11T00:08:31;40.30;;;22.67;;
26113;SDS011;13966;48.828;9.064;2022-12-11T00:10:57;39.13;;;22.17;;
26113;SDS011;13966;48.828;9.064;2022-12-11T00:13:23;33.13;;;19.88;;
26113;SDS011;13966;48.828;9.064;2022-12-11T00:15:49;37.53;;;20.88;;
26113;SDS011;13966;48.828;9.064;2022-12-11T00:18:15;36.90;;;20.52;;
26113;SDS011;13966;48.828;9.064;2022-12-11T00:20:41;38.88;;;21.50;;
26113;SDS011;13966;48.828;9.064;2022-12-11T00:23:07;43.30;;;23.38;;
26113;SDS011;13966;48.828;9.064;2022-12-11T00:25:34;44.65;;;23.52;;
26113;SDS011;13966;48.828;9.064;2022-12-11T00:28:00;38.25;;;21.90;;
26113;SDS011;13966;48.828;9.064;2022-12-11T00:30:26;38.28;;;22.23;;
26113;SDS011;13966;48.828;9.064;2022-12-11T00:32:52;36.95;;;21.25;;
26113;SDS011;13966;48.828;9.064;2022-12-11T00:35:18;38.60;;;19.88;;
26113;SDS011;13966;48.828;9.064;2022-12-11T00:37:44;30.95;;;17.92;;
26113;SDS011;13966;48.828;9.064;2022-12-11T00:40:10;32.85;;;17.98;;
26113;SDS011;13966;48.828;9.064;2022-12-11T00:42:36;30.20;;;18.02;;
26113;SDS011;13966;48.828;9.064;2022-12-11T00:45:02;38.88;;;21.27;;
26113;SDS011;13966;48.828;9.064;2022-12-11T00:47:28;37.78;;;21.30;;
26113;SDS011;13966;48.828;9.064;2022-12-11T00:49:54;60.72;;;29.23;;
26113;SDS011;13966;48.828;9.064;2022-12-11T00:52:20;59.25;;;28.23;;
26113;SDS011;13966;48.828;9.064;2022-12-11T00:54:46;41.35;;;22.35;;
26113;SDS011;13966;48.828;9.064;2022-12-11T00:57:12;42.47;;;22.52;;
26113;SDS011;13966;48.828;9.064;2022-12-11T00:59:38;40.63;;;20.40;;
26113;SDS011;13966;48.828;9.064;2022-12-11T01:02:04;32.25;;;18.63;;
26113;SDS011;13966;48.828;9.064;2022-12-11T01:04:30;30.85;;;18.27;;
26113;SDS011;13966;48.828;9.064;2022-12-11T01:06:56;31.80;;;18.58;;
26113;SDS011;13966;48.828;9.064;2022-12-11T01:09:22;28.75;;;17.10;;
26113;SDS011;13966;48.828;9.064;2022-12-11T01:12:07;31.00;;;17.90;;
26113;SDS011;13966;48.828;9.064;2022-12-11T01:14:33;29.17;;;18.20;;
26113;SDS011;13966;48.828;9.064;2022-12-11T01:16:59;28.30;;;16.90;;
26113;SDS011;13966;48.828;9.064;2022-12-11T01:19:25;33.78;;;17.70;;
26113;SDS011;13966;48.828;9.064;2022-12-11T01:21:51;29.08;;;17.40;;
26113;SDS011;13966;48.828;9.064;2022-12-11T01:24:17;30.35;;;18.20;;
26113;SDS011;13966;48.828;9.064;2022-12-11T01:26:43;30.58;;;18.20;;
26113;SDS011;13966;48.828;9.064;2022-12-11T01:29:09;32.47;;;18.35;;
26113;SDS011;13966;48.828;9.064;2022-12-11T01:31:35;31.67;;;18.45;;
26113;SDS011;13966;48.828;9.064;2022-12-11T01:34:02;33.60;;;19.00;;
26113;SDS011;13966;48.828;9.064;2022-12-11T01:36:28;37.40;;;20.80;;
26113;SDS011;13966;48.828;9.064;2022-12-11T01:38:54;31.80;;;17.98;;
26113;SDS011;13966;48.828;9.064;2022-12-11T01:41:20;37.38;;;19.60;;
26113;SDS011;13966;48.828;9.064;2022-12-11T01:43:56;32.40;;;18.20;;
26113;SDS011;13966;48.828;9.064;2022-12-11T01:46:22;31.20;;;18.52;;
26113;SDS011;13966;48.828;9.064;2022-12-11T01:48:48;32.92;;;18.35;;
26113;SDS011;13966;48.828;9.064;2022-12-11T01:51:14;30.10;;;16.90;;
26113;SDS011;13966;48.828;9.064;2022-12-11T01:53:42;30.55;;;17.85;;
26113;SDS011;13966;48.828;9.064;2022-12-11T01:56:10;31.85;;;18.73;;
26113;SDS011;13966;48.828;9.064;2022-12-11T01:58:41;32.22;;;18.05;;
26113;SDS011;13966;48.828;9.064;2022-12-11T02:01:09;34.17;;;19.77;;
26113;SDS011;13966;48.828;9.064;2022-12-11T02:03:37;31.55;;;19.13;;
26113;SDS011;13966;48.828;9.064;2022-12-11T02:06:03;32.47;;;18.88;;
26113;SDS011;13966;48.828;9.064;2022-12-11T02:08:29;33.05;;;18.80;;
26113;SDS011;13966;48.828;9.064;2022-12-11T02:10:59;30.48;;;18.15;;
26113;SDS011;13966;48.828;9.064;2022-12-11T02:14:02;34.50;;;19.25;;
26113;SDS011;13966;48.828;9.064;2022-12-11T02:16:28;35.15;;;20.55;;
26113;SDS011;13966;48.828;9.064;2022-12-11T02:19:16;33.67;;;19.27;;
26113;SDS011;13966;48.828;9.064;2022-12-11T02:21:45;31.58;;;19.35;;
26113;SDS011;13966;48.828;9.064;2022-12-11T02:29:32;34.30;;;18.58;;
26113;SDS011;13966;48.828;9.064;2022-12-11T02:34:33;35.33;;;19.65;;
26113;SDS011;13966;48.828;9.064;2022-12-11T02:37:06;35.38;;;20.30;;
26113;SDS011;13966;48.828;9.064;2022-12-11T02:39:34;30.98;;;17.98;;
26113;SDS011;13966;48.828;9.064;2022-12-11T02:42:01;33.03;;;18.67;;
26113;SDS011;13966;48.828;9.064;2022-12-11T02:44:29;32.80;;;19.50;;
26113;SDS011;13966;48.828;9.064;2022-12-11T02:46:59;36.67;;;20.70;;
26113;SDS011;13966;48.828;9.064;2022-12-11T02:49:26;32.25;;;19.27;;
26113;SDS011;13966;48.828;9.064;2022-12-11T02:51:52;32.83;;;18.52;;
26113;SDS011;13966;48.828;9.064;2022-12-11T02:54:21;33.63;;;19.13;;
26113;SDS011;13966;48.828;9.064;2022-12-11T02:56:53;31.92;;;18.88;;
26113;SDS011;13966;48.828;9.064;2022-12-11T02:59:23;31.35;;;17.85;;
26113;SDS011;13966;48.828;9.064;2022-12-11T03:01:50;35.10;;;18.38;;
26113;SDS011;13966;48.828;9.064;2022-12-11T03:04:16;33.25;;;19.75;;
26113;SDS011;13966;48.828;9.064;2022-12-11T03:06:47;31.02;;;18.33;;
26113;SDS011;13966;48.828;9.064;2022-12-11T03:09:13;35.13;;;20.08;;
26113;SDS011;13966;48.828;9.064;2022-12-11T03:11:39;41.25;;;20.52;;
26113;SDS011;13966;48.828;9.064;2022-12-11T03:14:05;42.42;;;20.38;;
26113;SDS011;13966;48.828;9.064;2022-12-11T03:16:33;38.60;;;20.25;;
26113;SDS011;13966;48.828;9.064;2022-12-11T03:26:28;40.47;;;20.65;;
26113;SDS011;13966;48.828;9.064;2022-12-11T03:28:59;45.63;;;20.88;;
26113;SDS011;13966;48.828;9.064;2022-12-11T03:31:29;56.22;;;25.25;;
26113;SDS011;13966;48.828;9.064;2022-12-11T03:36:32;64.50;;;24.23;;
26113;SDS011;13966;48.828;9.064;2022-12-11T03:39:00;60.05;;;24.35;;
26113;SDS011;13966;48.828;9.064;2022-12-11T03:41:27;54.20;;;22.77;;
26113;SDS011;13966;48.828;9.064;2022-12-11T03:43:56;43.78;;;21.15;;
26113;SDS011;13966;48.828;9.064;2022-12-11T03:46:23;38.78;;;19.95;;
26113;SDS011;13966;48.828;9.064;2022-12-11T03:48:52;35.30;;;17.38;;
26113;SDS011;13966;48.828;9.064;2022-12-11T03:51:18;32.67;;;17.30;;
26113;SDS011;13966;48.828;9.064;2022-12-11T03:53:45;31.40;;;17.83;;
26113;SDS011;13966;48.828;9.064;2022-12-11T03:56:12;30.15;;;17.02;;
26113;SDS011;13966;48.828;9.064;2022-12-11T03:58:39;27.67;;;16.98;;
26113;SDS011;13966;48.828;9.064;2022-12-11T04:01:08;27.52;;;16.58;;
26113;SDS011;13966;48.828;9.064;2022-12-11T04:03:34;27.70;;;16.75;;
26113;SDS011;13966;48.828;9.064;2022-12-11T04:06:00;28.85;;;16.38;;
26113;SDS011;13966;48.828;9.064;2022-12-11T04:08:26;25.80;;;15.65;;
26113;SDS011;13966;48.828;9.064;2022-12-11T04:10:52;27.45;;;15.77;;
26113;SDS011;13966;48.828;9.064;2022-12-11T04:13:38;28.80;;;16.55;;
26113;SDS011;13966;48.828;9.064;2022-12-11T04:16:05;27.90;;;16.13;;
26113;SDS011;13966;48.828;9.064;2022-12-11T04:18:31;26.40;;;16.05;;
26113;SDS011;13966;48.828;9.064;2022-12-11T04:21:16;25.40;;;15.20;;
26113;SDS011;13966;48.828;9.064;2022-12-11T04:24:00;29.52;;;16.17;;
26113;SDS011;13966;48.828;9.064;2022-12-11T04:26:39;24.35;;;14.75;;
26113;SDS011;13966;48.828;9.064;2022-12-11T04:29:05;25.92;;;15.93;;
26113;SDS011;13966;48.828;9.064;2022-12-11T04:31:31;26.67;;;15.18;;
26113;SDS011;13966;48.828;9.064;2022-12-11T04:33:57;30.23;;;16.30;;
26113;SDS011;13966;48.828;9.064;2022-12-11T04:36:23;26.33;;;16.27;;
26113;SDS011;13966;48.828;9.064;2022-12-11T04:38:49;26.02;;;16.13;;
26113;SDS011;13966;48.828;9.064;2022-12-11T04:41:16;25.27;;;15.55;;
26113;SDS011;13966;48.828;9.064;2022-12-11T04:43:42;24.80;;;15.05;;
26113;SDS011;13966;48.828;9.064;2022-12-11T04:46:18;25.75;;;15.23;;
26113;SDS011;13966;48.828;9.064;2022-12-11T04:48:44;24.30;;;15.38;;
26113;SDS011;13966;48.828;9.064;2022-12-11T04:51:11;28.20;;;15.80;;
26113;SDS011;13966;48.828;9.064;2022-12-11T04:53:40;26.90;;;15.93;;
26113;SDS011;13966;48.828;9.064;2022-12-11T04:56:07;24.67;;;15.60;;
26113;SDS011;13966;48.828;9.064;2022-12-11T04:58:33;23.17;;;14.27;;
26113;SDS011;13966;48.828;9.064;2022-12-11T05:01:00;26.10;;;15.57;;
26113;SDS011;13966;48.828;9.064;2022-12-11T05:03:26;25.95;;;15.35;;
26113;SDS011;13966;48.828;9.064;2022-12-11T05:05:52;25.80;;;14.60;;
26113;SDS011;13966;48.828;9.064;2022-12-11T05:08:19;25.98;;;14.98;;
26113;SDS011;13966;48.828;9.064;2022-12-11T05:10:53;28.45;;;14.60;;
26113;SDS011;13966;48.828;9.064;2022-12-11T05:13:20;24.65;;;14.93;;
26113;SDS011;13966;48.828;9.064;2022-12-11T05:15:46;26.27;;;14.90;;
26113;SDS011;13966;48.828;9.064;2022-12-11T05:18:12;25.85;;;15.43;;
26113;SDS011;13966;48.828;9.064;2022-12-11T05:20:38;26.33;;;15.38;;
26113;SDS011;13966;48.828;9.064;2022-12-11T05:23:04;24.75;;;14.35;;
26113;SDS011;13966;48.828;9.064;2022-12-11T05:25:30;23.25;;;14.13;;
26113;SDS011;13966;48.828;9.064;2022-12-11T05:27:56;28.65;;;15.55;;
26113;SDS011;13966;48.828;9.064;2022-12-11T05:30:22;27.08;;;15.70;;
26113;SDS011;13966;48.828;9.064;2022-12-11T05:32:48;24.67;;;14.68;;
26113;SDS011;13966;48.828;9.064;2022-12-11T05:35:14;25.33;;;14.57;;
26113;SDS011;13966;48.828;9.064;2022-12-11T05:37:40;29.65;;;15.60;;
26113;SDS011;13966;48.828;9.064;2022-12-11T05:40:06;25.63;;;15.30;;
26113;SDS011;13966;48.828;9.064;2022-12-11T05:42:32;24.70;;;15.40;;
26113;SDS011;13966;48.828;9.064;2022-12-11T05:44:58;26.88;;;15.77;;
26113;SDS011;13966;48.828;9.064;2022-12-11T05:47:27;26.73;;;15.77;;
26113;SDS011;13966;48.828;9.064;2022-12-11T05:49:53;26.30;;;15.35;;
26113;SDS011;13966;48.828;9.064;2022-12-11T05:52:19;25.73;;;15.38;;
26113;SDS011;13966;48.828;9.064;2022-12-11T05:54:47;26.85;;;15.50;;
26113;SDS011;13966;48.828;9.064;2022-12-11T05:57:13;30.08;;;17.27;;
26113;SDS011;13966;48.828;9.064;2022-12-11T05:59:39;28.60;;;16.42;;
26113;SDS011;13966;48.828;9.064;2022-12-11T06:02:05;26.95;;;15.90;;
26113;SDS011;13966;48.828;9.064;2022-12-11T06:04:31;27.98;;;16.23;;
26113;SDS011;13966;48.828;9.064;2022-12-11T06:06:57;29.17;;;16.48;;
26113;SDS011;13966;48.828;9.064;2022-12-11T06:09:23;27.50;;;15.52;;
26113;SDS011;13966;48.828;9.064;2022-12-11T06:11:49;29.48;;;16.23;;
26113;SDS011;13966;48.828;9.064;2022-12-11T06:14:15;29.50;;;15.55;;
26113;SDS011;13966;48.828;9.064;2022-12-11T06:16:41;26.08;;;15.93;;
26113;SDS011;13966;48.828;9.064;2022-12-11T06:19:11;28.00;;;16.65;;
26113;SDS011;13966;48.828;9.064;2022-12-11T06:21:38;30.58;;;16.38;;
26113;SDS011;13966;48.828;9.064;2022-12-11T06:24:04;27.10;;;15.98;;
26113;SDS011;13966;48.828;9.064;2022-12-11T06:26:30;27.85;;;16.83;;
26113;SDS011;13966;48.828;9.064;2022-12-11T06:28:56;28.92;;;16.10;;
26113;SDS011;13966;48.828;9.064;2022-12-11T06:31:22;28.73;;;16.67;;
26113;SDS011;13966;48.828;9.064;2022-12-11T06:33:48;28.35;;;16.20;;
26113;SDS011;13966;48.828;9.064;2022-12-11T06:36:16;30.25;;;16.75;;
26113;SDS011;13966;48.828;9.064;2022-12-11T06:38:42;28.92;;;16.48;;
26113;SDS011;13966;48.828;9.064;2022-12-11T06:41:09;28.02;;;16.77;;
26113;SDS011;13966;48.828;9.064;2022-12-11T06:43:36;29.30;;;17.63;;
26113;SDS011;13966;48.828;9.064;2022-12-11T06:46:06;28.73;;;16.13;;
26113;SDS011;13966;48.828;9.064;2022-12-11T06:48:33;27.70;;;16.73;;
26113;SDS011;13966;48.828;9.064;2022-12-11T06:50:59;31.60;;;17.63;;
26113;SDS011;13966;48.828;9.064;2022-12-11T06:53:27;33.10;;;18.88;;
26113;SDS011;13966;48.828;9.064;2022-12-11T06:55:54;33.67;;;18.27;;
26113;SDS011;13966;48.828;9.064;2022-12-11T06:58:19;34.28;;;18.90;;
26113;SDS011;13966;48.828;9.064;2022-12-11T07:00:45;31.20;;;18.77;;
26113;SDS011;13966;48.828;9.064;2022-12-11T07:03:11;31.15;;;17.38;;
26113;SDS011;13966;48.828;9.064;2022-12-11T07:05:37;35.30;;;19.10;;
26113;SDS011;13966;48.828;9.064;2022-12-11T07:08:04;34.78;;;18.80;;
26113;SDS011;13966;48.828;9.064;2022-12-11T07:10:31;35.63;;;19.58;;
26113;SDS011;13966;48.828;9.064;2022-12-11T07:12:57;35.22;;;19.95;;
26113;SDS011;13966;48.828;9.064;2022-12-11T07:15:23;29.70;;;18.08;;
26113;SDS011;13966;48.828;9.064;2022-12-11T07:17:49;33.50;;;18.33;;
26113;SDS011;13966;48.828;9.064;2022-12-11T07:20:15;38.00;;;18.67;;
26113;SDS011;13966;48.828;9.064;2022-12-11T07:22:41;37.00;;;19.85;;
26113;SDS011;13966;48.828;9.064;2022-12-11T07:25:07;32.92;;;18.50;;
26113;SDS011;13966;48.828;9.064;2022-12-11T07:27:33;31.17;;;17.15;;
26113;SDS011;13966;48.828;9.064;2022-12-11T07:29:59;31.67;;;18.30;;
26113;SDS011;13966;48.828;9.064;2022-12-11T07:32:25;29.40;;;17.48;;
26113;SDS011;13966;48.828;9.064;2022-12-11T07:34:52;35.17;;;19.42;;
26113;SDS011;13966;48.828;9.064;2022-12-11T07:37:21;31.10;;;17.83;;
26113;SDS011;13966;48.828;9.064;2022-12-11T07:39:47;33.67;;;18.92;;
26113;SDS011;13966;48.828;9.064;2022-12-11T07:42:13;80.40;;;33.65;;
26113;SDS011;13966;48.828;9.064;2022-12-11T07:44:39;39.45;;;21.23;;
26113;SDS011;13966;48.828;9.064;2022-12-11T07:47:05;35.88;;;20.15;;
26113;SDS011;13966;48.828;9.064;2022-12-11T07:49:31;36.00;;;20.42;;
26113;SDS011;13966;48.828;9.064;2022-12-11T07:51:58;36.30;;;20.60;;
26113;SDS011;13966;48.828;9.064;2022-12-11T07:54:24;34.70;;;20.48;;
26113;SDS011;13966;48.828;9.064;2022-12-11T07:56:50;38.33;;;21.77;;
26113;SDS011;13966;48.828;9.064;2022-12-11T07:59:16;35.75;;;21.23;;
26113;SDS011;13966;48.828;9.064;2022-12-11T08:01:42;42.83;;;24.23;;
26113;SDS011;13966;48.828;9.064;2022-12-11T08:04:08;42.40;;;25.85;;
26113;SDS011;13966;48.828;9.064;2022-12-11T08:06:36;54.92;;;29.95;;
26113;SDS011;13966;48.828;9.064;2022-12-11T08:09:03;47.60;;;25.33;;
26113;SDS011;13966;48.828;9.064;2022-12-11T08:11:30;41.95;;;23.95;;
26113;SDS011;13966;48.828;9.064;2022-12-11T08:13:56;42.35;;;24.45;;
26113;SDS011;13966;48.828;9.064;2022-12-11T08:16:26;47.72;;;26.27;;
26113;SDS011;13966;48.828;9.064;2022-12-11T08:18:52;44.75;;;25.38;;
26113;SDS011;13966;48.828;9.064;2022-12-11T08:21:22;44.85;;;23.20;;
26113;SDS011;13966;48.828;9.064;2022-12-11T08:23:49;38.57;;;22.30;;
26113;SDS011;13966;48.828;9.064;2022-12-11T08:26:16;37.83;;;20.77;;
26113;SDS011;13966;48.828;9.064;2022-12-11T08:28:42;39.38;;;22.17;;
26113;SDS011;13966;48.828;9.064;2022-12-11T08:31:08;38.63;;;22.00;;
26113;SDS011;13966;48.828;9.064;2022-12-11T08:33:35;42.15;;;22.60;;
26113;SDS011;13966;48.828;9.064;2022-12-11T08:36:05;41.63;;;25.10;;
26113;SDS011;13966;48.828;9.064;2022-12-11T08:38:32;42.53;;;24.58;;
26113;SDS011;13966;48.828;9.064;2022-12-11T08:40:58;39.10;;;23.15;;
26113;SDS011;13966;48.828;9.064;2022-12-11T08:43:24;39.42;;;22.95;;
26113;SDS011;13966;48.828;9.064;2022-12-11T08:45:50;42.50;;;25.83;;
26113;SDS011;13966;48.828;9.064;2022-12-11T08:48:16;37.17;;;21.75;;
26113;SDS011;13966;48.828;9.064;2022-12-11T08:50:42;37.45;;;22.05;;
26113;SDS011;13966;48.828;9.064;2022-12-11T08:53:08;40.08;;;22.02;;
26113;SDS011;13966;48.828;9.064;2022-12-11T08:55:34;31.75;;;19.35;;
26113;SDS011;13966;48.828;9.064;2022-12-11T08:58:00;34.42;;;19.42;;
26113;SDS011;13966;48.828;9.064;2022-12-11T09:00:26;32.58;;;18.98;;
26113;SDS011;13966;48.828;9.064;2022-12-11T09:02:52;30.63;;;18.92;;
26113;SDS011;13966;48.828;9.064;2022-12-11T09:05:18;30.48;;;17.45;;
26113;SDS011;13966;48.828;9.064;2022-12-11T09:07:44;31.88;;;18.25;;
26113;SDS011;13966;48.828;9.064;2022-12-11T09:10:10;27.17;;;16.52;;
26113;SDS011;13966;48.828;9.064;2022-12-11T09:12:36;29.85;;;17.48;;
26113;SDS011;13966;48.828;9.064;2022-12-11T09:15:02;30.63;;;17.20;;
26113;SDS011;13966;48.828;9.064;2022-12-11T09:17:28;29.25;;;16.67;;
26113;SDS011;13966;48.828;9.064;2022-12-11T09:19:54;26.13;;;15.93;;
26113;SDS011;13966;48.828;9.064;2022-12-11T09:22:20;27.27;;;17.15;;
26113;SDS011;13966;48.828;9.064;2022-12-11T09:24:46;26.38;;;15.40;;
26113;SDS011;13966;48.828;9.064;2022-12-11T09:27:12;25.92;;;15.77;;
26113;SDS011;13966;48.828;9.064;2022-12-11T09:29:38;26.83;;;16.17;;
26113;SDS011;13966;48.828;9.064;2022-12-11T09:32:04;27.40;;;16.30;;
26113;SDS011;13966;48.828;9.064;2022-12-11T09:34:30;28.67;;;17.23;;
26113;SDS011;13966;48.828;9.064;2022-12-11T09:36:56;31.50;;;17.67;;
26113;SDS011;13966;48.828;9.064;2022-12-11T09:39:23;31.83;;;18.55;;
26113;SDS011;13966;48.828;9.064;2022-12-11T09:47:17;30.15;;;16.83;;
26113;SDS011;13966;48.828;9.064;2022-12-11T09:49:44;29.05;;;16.45;;
26113;SDS011;13966;48.828;9.064;2022-12-11T09:54:42;25.92;;;16.15;;
26113;SDS011;13966;48.828;9.064;2022-12-11T09:57:12;26.38;;;15.38;;
26113;SDS011;13966;48.828;9.064;2022-12-11T10:05:19;54.33;;;26.80;;
26113;SDS011;13966;48.828;9.064;2022-12-11T10:07:51;52.38;;;27.45;;
26113;SDS011;13966;48.828;9.064;2022-12-11T10:10:26;54.10;;;27.88;;
26113;SDS011;13966;48.828;9.064;2022-12-11T10:15:42;35.28;;;19.67;;
26113;SDS011;13966;48.828;9.064;2022-12-11T10:18:15;28.95;;;17.60;;
26113;SDS011;13966;48.828;9.064;2022-12-11T10:20:43;35.22;;;20.75;;
26113;SDS011;13966;48.828;9.064;2022-12-11T10:23:19;33.65;;;19.45;;
26113;SDS011;13966;48.828;9.064;2022-12-11T10:25:53;39.65;;;21.48;;
26113;SDS011;13966;48.828;9.064;2022-12-11T10:28:21;39.58;;;22.13;;
26113;SDS011;13966;48.828;9.064;2022-12-11T10:33:48;40.50;;;21.88;;
26113;SDS011;13966;48.828;9.064;2022-12-11T10:36:18;39.75;;;20.92;;
26113;SDS011;13966;48.828;9.064;2022-12-11T10:38:45;35.40;;;19.23;;
26113;SDS011;13966;48.828;9.064;2022-12-11T10:41:19;31.02;;;17.50;;
26113;SDS011;13966;48.828;9.064;2022-12-11T10:43:50;29.67;;;17.10;;
26113;SDS011;13966;48.828;9.064;2022-12-11T10:46:23;28.98;;;17.50;;
26113;SDS011;13966;48.828;9.064;2022-12-11T10:48:51;26.73;;;16.23;;
26113;SDS011;13966;48.828;9.064;2022-12-11T10:51:18;33.25;;;18.83;;
26113;SDS011;13966;48.828;9.064;2022-12-11T10:53:48;30.35;;;17.60;;
26113;SDS011;13966;48.828;9.064;2022-12-11T10:56:14;33.30;;;19.25;;
26113;SDS011;13966;48.828;9.064;2022-12-11T10:58:48;34.45;;;17.45;;
26113;SDS011;13966;48.828;9.064;2022-12-11T11:01:15;32.75;;;19.50;;
26113;SDS011;13966;48.828;9.064;2022-12-11T11:03:52;27.77;;;17.33;;
26113;SDS011;13966;48.828;9.064;2022-12-11T11:06:20;28.25;;;16.85;;
26113;SDS011;13966;48.828;9.064;2022-12-11T11:08:47;32.67;;;19.02;;
26113;SDS011;13966;48.828;9.064;2022-12-11T11:11:27;33.20;;;18.15;;
26113;SDS011;13966;48.828;9.064;2022-12-11T11:14:07;29.58;;;17.10;;
26113;SDS011;13966;48.828;9.064;2022-12-11T11:16:41;27.98;;;16.40;;
26113;SDS011;13966;48.828;9.064;2022-12-11T11:19:20;32.05;;;18.27;;
26113;SDS011;13966;48.828;9.064;2022-12-11T11:21:52;27.75;;;16.75;;
26113;SDS011;13966;48.828;9.064;2022-12-11T11:24:23;27.42;;;15.75;;
26113;SDS011;13966;48.828;9.064;2022-12-11T11:26:58;25.52;;;14.98;;
26113;SDS011;13966;48.828;9.064;2022-12-11T11:29:26;29.95;;;15.80;;
26113;SDS011;13966;48.828;9.064;2022-12-11T11:31:55;23.45;;;14.25;;
26113;SDS011;13966;48.828;9.064;2022-12-11T11:34:21;23.92;;;14.63;;
26113;SDS011;13966;48.828;9.064;2022-12-11T11:36:56;26.38;;;14.98;;
26113;SDS011;13966;48.828;9.064;2022-12-11T11:39:28;20.55;;;13.32;;
26113;SDS011;13966;48.828;9.064;2022-12-11T11:42:13;24.17;;;14.80;;
26113;SDS011;13966;48.828;9.064;2022-12-11T11:47:19;24.65;;;14.88;;
26113;SDS011;13966;48.828;9.064;2022-12-11T11:52:33;50.58;;;28.35;;
26113;SDS011;13966;48.828;9.064;2022-12-11T11:58:16;75.72;;;35.25;;
26113;SDS011;13966;48.828;9.064;2022-12-11T12:00:46;47.72;;;27.40;;
26113;SDS011;13966;48.828;9.064;2022-12-11T12:03:14;33.30;;;18.50;;
26113;SDS011;13966;48.828;9.064;2022-12-11T12:05:50;26.63;;;16.10;;
26113;SDS011;13966;48.828;9.064;2022-12-11T12:08:54;27.00;;;15.90;;
26113;SDS011;13966;48.828;9.064;2022-12-11T12:14:22;24.42;;;14.20;;
26113;SDS011;13966;48.828;9.064;2022-12-11T12:22:22;25.38;;;15.63;;
26113;SDS011;13966;48.828;9.064;2022-12-11T12:25:05;23.92;;;13.70;;
26113;SDS011;13966;48.828;9.064;2022-12-11T12:30:41;28.63;;;15.38;;
26113;SDS011;13966;48.828;9.064;2022-12-11T12:33:30;25.10;;;14.57;;
26113;SDS011;13966;48.828;9.064;2022-12-11T12:36:25;26.85;;;15.30;;
26113;SDS011;13966;48.828;9.064;2022-12-11T12:41:46;31.35;;;18.60;;
26113;SDS011;13966;48.828;9.064;2022-12-11T12:44:30;24.83;;;15.00;;
26113;SDS011;13966;48.828;9.064;2022-12-11T12:47:15;34.25;;;20.65;;
26113;SDS011;13966;48.828;9.064;2022-12-11T12:49:46;32.47;;;18.77;;
26113;SDS011;13966;48.828;9.064;2022-12-11T12:52:15;39.13;;;21.58;;
26113;SDS011;13966;48.828;9.064;2022-12-11T12:54:47;35.25;;;21.27;;
26113;SDS011;13966;48.828;9.064;2022-12-11T12:57:44;26.70;;;17.15;;
26113;SDS011;13966;48.828;9.064;2022-12-11T13:06:30;25.75;;;16.20;;
26113;SDS011;13966;48.828;9.064;2022-12-11T13:11:41;24.83;;;14.35;;
26113;SDS011;13966;48.828;9.064;2022-12-11T13:16:43;24.38;;;14.80;;
26113;SDS011;13966;48.828;9.064;2022-12-11T13:25:01;29.80;;;16.70;;
26113;SDS011;13966;48.828;9.064;2022-12-11T13:27:40;31.13;;;17.52;;
26113;SDS011;13966;48.828;9.064;2022-12-11T13:32:40;32.55;;;19.23;;
26113;SDS011;13966;48.828;9.064;2022-12-11T13:35:17;29.77;;;18.63;;
26113;SDS011;13966;48.828;9.064;2022-12-11T13:37:44;34.40;;;18.27;;
26113;SDS011;13966;48.828;9.064;2022-12-11T13:40:14;29.98;;;17.83;;
26113;SDS011;13966;48.828;9.064;2022-12-11T13:42:50;44.92;;;25.77;;
26113;SDS011;13966;48.828;9.064;2022-12-11T13:45:26;31.25;;;18.42;;
26113;SDS011;13966;48.828;9.064;2022-12-11T13:47:53;26.20;;;16.42;;
26113;SDS011;13966;48.828;9.064;2022-12-11T13:50:25;28.33;;;18.52;;
26113;SDS011;13966;48.828;9.064;2022-12-11T13:52:55;33.42;;;17.52;;
26113;SDS011;13966;48.828;9.064;2022-12-11T13:55:26;30.83;;;18.95;;
26113;SDS011;13966;48.828;9.064;2022-12-11T13:57:56;26.33;;;17.75;;
26113;SDS011;13966;48.828;9.064;2022-12-11T14:00:24;25.88;;;16.90;;
26113;SDS011;13966;48.828;9.064;2022-12-11T14:02:56;27.52;;;18.33;;
26113;SDS011;13966;48.828;9.064;2022-12-11T14:05:24;28.25;;;18.55;;
26113;SDS011;13966;48.828;9.064;2022-12-11T14:07:57;24.42;;;17.63;;
26113;SDS011;13966;48.828;9.064;2022-12-11T14:10:26;27.40;;;18.00;;
26113;SDS011;13966;48.828;9.064;2022-12-11T14:13:00;27.35;;;18.38;;
26113;SDS011;13966;48.828;9.064;2022-12-11T14:15:29;24.58;;;17.92;;
26113;SDS011;13966;48.828;9.064;2022-12-11T14:17:56;33.95;;;19.55;;
26113;SDS011;13966;48.828;9.064;2022-12-11T14:20:25;28.75;;;18.42;;
26113;SDS011;13966;48.828;9.064;2022-12-11T14:25:42;48.70;;;29.00;;
26113;SDS011;13966;48.828;9.064;2022-12-11T14:28:20;46.72;;;30.15;;
26113;SDS011;13966;48.828;9.064;2022-12-11T14:30:48;42.95;;;26.90;;
26113;SDS011;13966;48.828;9.064;2022-12-11T14:33:16;34.13;;;21.00;;
26113;SDS011;13966;48.828;9.064;2022-12-11T14:35:44;29.80;;;19.23;;
26113;SDS011;13966;48.828;9.064;2022-12-11T14:38:31;34.47;;;20.20;;
26113;SDS011;13966;48.828;9.064;2022-12-11T14:44:01;30.05;;;18.77;;
26113;SDS011;13966;48.828;9.064;2022-12-11T14:46:42;35.58;;;20.27;;
26113;SDS011;13966;48.828;9.064;2022-12-11T14:49:36;37.28;;;21.45;;
26113;SDS011;13966;48.828;9.064;2022-12-11T14:52:24;38.75;;;21.42;;
26113;SDS011;13966;48.828;9.064;2022-12-11T14:54:59;37.38;;;21.35;;
26113;SDS011;13966;48.828;9.064;2022-12-11T14:57:46;40.72;;;21.15;;
26113;SDS011;13966;48.828;9.064;2022-12-11T15:00:23;45.80;;;25.38;;
26113;SDS011;13966;48.828;9.064;2022-12-11T15:03:01;42.08;;;23.33;;
26113;SDS011;13966;48.828;9.064;2022-12-11T15:05:29;52.17;;;29.60;;
26113;SDS011;13966;48.828;9.064;2022-12-11T15:10:41;39.83;;;21.58;;
26113;SDS011;13966;48.828;9.064;2022-12-11T15:13:23;37.75;;;22.25;;
26113;SDS011;13966;48.828;9.064;2022-12-11T15:15:49;38.45;;;21.60;;
26113;SDS011;13966;48.828;9.064;2022-12-11T15:18:18;39.50;;;22.25;;
26113;SDS011;13966;48.828;9.064;2022-12-11T15:21:05;37.65;;;21.00;;
26113;SDS011;13966;48.828;9.064;2022-12-11T15:23:48;42.25;;;22.13;;
26113;SDS011;13966;48.828;9.064;2022-12-11T15:28:43;42.75;;;21.98;;
26113;SDS011;13966;48.828;9.064;2022-12-11T15:31:22;39.83;;;21.75;;
26113;SDS011;13966;48.828;9.064;2022-12-11T15:33:49;40.53;;;21.00;;
26113;SDS011;13966;48.828;9.064;2022-12-11T15:38:58;38.55;;;21.45;;
26113;SDS011;13966;48.828;9.064;2022-12-11T15:41:24;36.78;;;21.35;;
26113;SDS011;13966;48.828;9.064;2022-12-11T15:43:51;42.35;;;22.80;;
26113;SDS011;13966;48.828;9.064;2022-12-11T15:46:18;38.60;;;21.50;;
26113;SDS011;13966;48.828;9.064;2022-12-11T15:48:43;41.80;;;23.05;;
26113;SDS011;13966;48.828;9.064;2022-12-11T15:51:09;36.03;;;21.10;;
26113;SDS011;13966;48.828;9.064;2022-12-11T15:53:35;45.60;;;24.52;;
26113;SDS011;13966;48.828;9.064;2022-12-11T15:56:01;42.25;;;23.38;;
26113;SDS011;13966;48.828;9.064;2022-12-11T15:58:27;44.92;;;24.73;;
26113;SDS011;13966;48.828;9.064;2022-12-11T16:00:53;45.20;;;24.48;;
26113;SDS011;13966;48.828;9.064;2022-12-11T16:03:20;39.92;;;22.83;;
26113;SDS011;13966;48.828;9.064;2022-12-11T16:05:47;42.75;;;22.05;;